createdAt,value
2023-04-02T00:01:51.895Z,6.98
2023-04-02T00:04:23.694Z,7.01
2023-04-02T00:07:31.242Z,7.03
2023-04-02T00:10:01.579Z,7.06
2023-04-02T00:12:32.501Z,7.08
2023-04-02T00:15:03.327Z,7.09
2023-04-02T00:17:34.782Z,7.10
2023-04-02T00:20:07.617Z,7.11
2023-04-02T00:22:45.443Z,7.12
2023-04-02T00:25:16.274Z,7.12
2023-04-02T00:27:46.364Z,7.12
2023-04-02T00:30:17.900Z,7.12
2023-04-02T00:32:46.851Z,7.10
2023-04-02T00:35:28.324Z,7.08
2023-04-02T00:37:58.561Z,7.07
2023-04-02T00:40:31.456Z,7.03
2023-04-02T00:43:04.682Z,6.97
2023-04-02T00:45:41.457Z,6.93
2023-04-02T00:48:29.581Z,6.91
2023-04-02T00:51:08.811Z,6.95
2023-04-02T00:53:39.736Z,6.94
2023-04-02T00:56:29.092Z,6.98
2023-04-02T00:58:59.108Z,7.00
2023-04-02T01:01:38.133Z,7.00
2023-04-02T01:04:34.707Z,7.00
2023-04-02T01:07:09.176Z,6.97
2023-04-02T01:09:55.858Z,6.95
2023-04-02T01:13:07.401Z,6.94
2023-04-02T01:15:50.360Z,6.94
2023-04-02T01:18:54.100Z,6.91
2023-04-02T01:21:30.965Z,6.91
2023-04-02T01:24:10.409Z,6.90
2023-04-02T01:26:47.640Z,6.89
2023-04-02T01:29:16.903Z,6.87
2023-04-02T01:31:50.109Z,6.87
2023-04-02T01:34:25.254Z,6.88
2023-04-02T01:37:18.184Z,6.87
2023-04-02T01:40:06.935Z,6.85
2023-04-02T01:43:31.037Z,6.85
2023-04-02T01:46:24.527Z,6.84
2023-04-02T01:48:57.278Z,6.86
2023-04-02T01:51:35.833Z,6.87
2023-04-02T01:54:08.969Z,6.90
2023-04-02T01:56:40.202Z,6.90
2023-04-02T01:59:12.158Z,6.90
2023-04-02T02:02:06.834Z,6.88
2023-04-02T02:04:39.767Z,6.89
2023-04-02T02:07:17.328Z,6.88
2023-04-02T02:09:50.319Z,6.87
2023-04-02T02:12:20.312Z,6.87
2023-04-02T02:14:54.193Z,6.86
2023-04-02T02:17:35.274Z,6.86
2023-04-02T02:20:12.406Z,6.85
2023-04-02T02:22:50.285Z,6.86
2023-04-02T02:25:27.604Z,6.85
2023-04-02T02:28:09.738Z,6.85
2023-04-02T02:30:48.306Z,6.86
2023-04-02T02:33:40.265Z,6.87
2023-04-02T02:36:57.743Z,6.87
2023-04-02T02:39:42.292Z,6.86
2023-04-02T02:42:19.173Z,6.85
2023-04-02T02:44:51.209Z,6.86
2023-04-02T02:47:35.473Z,6.85
2023-04-02T02:50:18.636Z,6.86
2023-04-02T02:52:53.795Z,6.87
2023-04-02T02:55:28.414Z,6.89
2023-04-02T02:58:28.432Z,6.89
2023-04-02T03:01:09.109Z,6.89
2023-04-02T03:03:41.821Z,6.88
2023-04-02T03:06:21.530Z,6.86
2023-04-02T03:09:05.469Z,6.85
2023-04-02T03:11:50.003Z,6.84
2023-04-02T03:14:46.894Z,6.84
2023-04-02T03:17:27.664Z,6.83
2023-04-02T03:20:13.022Z,6.81
2023-04-02T03:23:01.198Z,6.78
2023-04-02T03:25:46.517Z,6.75
2023-04-02T03:28:24.115Z,6.69
2023-04-02T03:31:05.644Z,6.65
2023-04-02T03:33:41.108Z,6.59
2023-04-02T03:36:38.718Z,6.54
2023-04-02T03:39:18.790Z,6.50
2023-04-02T03:41:59.724Z,6.50
2023-04-02T03:44:47.920Z,6.51
2023-04-02T03:47:31.162Z,6.52
2023-04-02T03:50:33.504Z,6.52
2023-04-02T03:53:05.011Z,6.54
2023-04-02T03:55:38.283Z,6.54
2023-04-02T03:58:30.071Z,6.56
2023-04-02T04:01:05.303Z,6.58
2023-04-02T04:03:50.504Z,6.59
2023-04-02T04:06:29.874Z,6.58
2023-04-02T04:09:21.104Z,6.58
2023-04-02T04:11:54.928Z,6.58
2023-04-02T04:14:38.197Z,6.59
2023-04-02T04:17:30.863Z,6.58
2023-04-02T04:20:16.094Z,6.54
2023-04-02T04:22:50.441Z,6.53
2023-04-02T04:25:30.935Z,6.52
2023-04-02T04:28:27.421Z,6.52
2023-04-02T04:31:09.724Z,6.52
2023-04-02T04:33:47.629Z,6.50
2023-04-02T04:36:32.603Z,6.47
2023-04-02T04:39:17.648Z,6.45
2023-04-02T04:41:50.747Z,6.44
2023-04-02T04:44:54.048Z,6.45
2023-04-02T04:47:41.124Z,6.48
2023-04-02T04:50:34.674Z,6.51
2023-04-02T04:53:18.350Z,6.56
2023-04-02T04:55:52.407Z,6.59
2023-04-02T04:58:41.322Z,6.63
2023-04-02T05:01:18.409Z,6.64
2023-04-02T05:04:11.635Z,6.68
2023-04-02T05:06:45.913Z,6.73
2023-04-02T05:09:25.107Z,6.76
2023-04-02T05:12:17.303Z,6.81
2023-04-02T05:14:58.856Z,6.84
2023-04-02T05:17:53.514Z,6.88
2023-04-02T05:20:35.564Z,6.92
2023-04-02T05:23:14.191Z,6.95
2023-04-02T05:26:31.666Z,6.96
2023-04-02T05:29:08.917Z,7.02
2023-04-02T05:31:55.702Z,7.12
2023-04-02T05:34:30.649Z,7.17
2023-04-02T05:36:59.840Z,7.29
2023-04-02T05:39:29.218Z,7.33
2023-04-02T05:42:04.582Z,7.40
2023-04-02T05:44:56.975Z,7.50
2023-04-02T05:47:30.297Z,7.56
2023-04-02T05:50:06.097Z,7.58
2023-04-02T05:52:47.729Z,7.65
2023-04-02T05:55:19.988Z,7.76
2023-04-02T05:58:17.631Z,7.83
2023-04-02T06:00:52.401Z,7.95
2023-04-02T06:03:39.139Z,8.06
2023-04-02T06:06:40.596Z,8.08
2023-04-02T06:09:28.610Z,8.11
2023-04-02T06:12:17.805Z,8.15
2023-04-02T06:14:49.839Z,8.14
2023-04-02T06:17:21.788Z,8.22
2023-04-02T06:19:53.291Z,8.23
2023-04-02T06:22:36.779Z,8.25
2023-04-02T06:25:15.446Z,8.37
2023-04-02T06:27:47.506Z,8.49
2023-04-02T06:30:31.037Z,8.63
2023-04-02T06:32:59.726Z,8.75
2023-04-02T06:35:28.959Z,8.75
2023-04-02T06:38:01.819Z,8.76
2023-04-02T06:40:37.453Z,8.84
2023-04-02T06:43:21.521Z,8.90
2023-04-02T06:46:03.338Z,9.04
2023-04-02T06:48:40.593Z,9.16
2023-04-02T06:51:10.735Z,9.26
2023-04-02T06:53:48.202Z,9.19
2023-04-02T06:56:22.369Z,9.17
2023-04-02T06:58:51.021Z,9.09
2023-04-02T07:01:24.422Z,9.01
2023-04-02T07:03:53.230Z,9.13
2023-04-02T07:06:27.525Z,9.27
2023-04-02T07:08:59.594Z,9.22
2023-04-02T07:11:28.629Z,9.30
2023-04-02T07:14:00.647Z,9.44
2023-04-02T07:16:30.902Z,9.53
2023-04-02T07:18:59.805Z,9.67
2023-04-02T07:21:31.288Z,9.73
2023-04-02T07:23:59.836Z,9.87
2023-04-02T07:26:29.353Z,9.94
2023-04-02T07:28:57.702Z,10.03
2023-04-02T07:31:27.815Z,10.10
2023-04-02T07:33:59.862Z,10.13
2023-04-02T07:36:29.471Z,10.14
2023-04-02T07:38:58.449Z,10.16
2023-04-02T07:41:27.790Z,10.26
2023-04-02T07:43:56.573Z,10.31
2023-04-02T07:46:26.202Z,10.39
2023-04-02T07:48:54.702Z,10.49
2023-04-02T07:51:24.484Z,10.51
2023-04-02T07:53:56.301Z,10.61
2023-04-02T07:56:25.573Z,10.66
2023-04-02T07:58:54.197Z,10.65
2023-04-02T08:01:24.636Z,10.69
2023-04-02T08:03:57.051Z,10.75
2023-04-02T08:06:25.835Z,10.78
2023-04-02T08:08:54.291Z,10.80
2023-04-02T08:11:22.673Z,10.80
2023-04-02T08:13:52.278Z,10.80
2023-04-02T08:16:20.974Z,10.85
2023-04-02T08:18:49.588Z,10.96
2023-04-02T08:21:18.033Z,10.98
2023-04-02T08:23:46.501Z,11.10
2023-04-02T08:26:19.104Z,11.16
2023-04-02T08:28:47.433Z,11.23
2023-04-02T08:31:16.057Z,11.26
2023-04-02T08:33:44.467Z,11.35
2023-04-02T08:36:25.404Z,11.39
2023-04-02T08:38:53.860Z,11.41
2023-04-02T08:41:28.004Z,11.40
2023-04-02T08:44:37.006Z,11.45
2023-04-02T08:47:06.803Z,11.49
2023-04-02T08:49:42.554Z,11.62
2023-04-02T08:52:27.308Z,11.74
2023-04-02T08:54:58.272Z,11.87
2023-04-02T08:57:33.143Z,11.91
2023-04-02T09:00:10.462Z,11.98
2023-04-02T09:02:47.360Z,12.02
2023-04-02T09:05:19.197Z,12.01
2023-04-02T09:07:48.399Z,12.05
2023-04-02T09:10:17.987Z,12.01
2023-04-02T09:12:51.159Z,12.08
2023-04-02T09:15:34.548Z,12.00
2023-04-02T09:18:17.046Z,11.87
2023-04-02T09:20:48.444Z,11.75
2023-04-02T09:23:24.443Z,11.67
2023-04-02T09:26:04.008Z,11.73
2023-04-02T09:28:33.004Z,11.79
2023-04-02T09:31:14.098Z,11.89
2023-04-02T09:33:50.388Z,11.87
2023-04-02T09:36:19.243Z,11.72
2023-04-02T09:38:59.270Z,11.77
2023-04-02T09:41:28.858Z,11.73
2023-04-02T09:44:14.257Z,11.75
2023-04-02T09:47:14.878Z,11.77
2023-04-02T09:49:43.278Z,11.69
2023-04-02T09:52:11.770Z,11.58
2023-04-02T09:54:43.163Z,11.60
2023-04-02T09:57:21.409Z,11.55
2023-04-02T10:00:12.244Z,11.58
2023-04-02T10:02:59.884Z,11.63
2023-04-02T10:05:39.994Z,11.53
2023-04-02T10:08:17.378Z,11.52
2023-04-02T10:10:53.554Z,11.53
2023-04-02T10:13:37.665Z,11.60
2023-04-02T10:16:06.219Z,11.69
2023-04-02T10:18:35.110Z,11.79
2023-04-02T10:21:04.942Z,11.77
2023-04-02T10:23:33.744Z,11.68
2023-04-02T10:26:21.024Z,11.60
2023-04-02T10:29:08.282Z,11.64
2023-04-02T10:31:55.288Z,11.74
2023-04-02T10:34:26.246Z,11.81
2023-04-02T10:36:55.628Z,11.85
2023-04-02T10:39:29.967Z,11.87
2023-04-02T10:42:18.588Z,11.94
2023-04-02T10:44:56.652Z,12.08
2023-04-02T10:47:27.598Z,12.19
2023-04-02T10:50:14.688Z,12.23
2023-04-02T10:52:47.908Z,12.35
2023-04-02T10:55:25.779Z,12.40
2023-04-02T10:57:56.222Z,12.37
2023-04-02T11:00:29.292Z,12.30
2023-04-02T11:03:09.835Z,12.21
2023-04-02T11:05:44.427Z,12.09
2023-04-02T11:08:13.155Z,12.08
2023-04-02T11:10:45.511Z,12.09
2023-04-02T11:13:14.134Z,12.10
2023-04-02T11:15:42.829Z,11.98
2023-04-02T11:18:22.547Z,11.99
2023-04-02T11:20:51.130Z,12.08
2023-04-02T11:23:20.595Z,12.19
2023-04-02T11:25:49.161Z,12.29
2023-04-02T11:28:31.521Z,12.31
2023-04-02T11:31:00.491Z,12.38
2023-04-02T11:33:38.236Z,12.38
2023-04-02T11:36:27.176Z,12.57
2023-04-02T11:39:01.924Z,12.70
2023-04-02T11:41:54.824Z,12.79
2023-04-02T11:44:24.500Z,12.77
2023-04-02T11:46:52.973Z,12.75
2023-04-02T11:49:37.584Z,12.74
2023-04-02T11:52:19.629Z,12.64
2023-04-02T11:54:55.222Z,12.56
2023-04-02T11:57:42.658Z,12.57
2023-04-02T12:00:15.250Z,12.59
2023-04-02T12:03:04.681Z,12.65
2023-04-02T12:05:43.737Z,12.70
2023-04-02T12:08:30.679Z,12.68
2023-04-02T12:11:00.697Z,12.64
2023-04-02T12:13:41.428Z,12.59
2023-04-02T12:16:10.869Z,12.38
2023-04-02T12:18:47.644Z,12.36
2023-04-02T12:21:16.943Z,12.45
2023-04-02T12:23:47.343Z,12.46
2023-04-02T12:26:27.818Z,12.43
2023-04-02T12:29:14.484Z,12.48
2023-04-02T12:31:44.876Z,12.41
2023-04-02T12:34:18.348Z,12.39
2023-04-02T12:36:53.204Z,12.46
2023-04-02T12:39:22.172Z,12.62
2023-04-02T12:41:50.681Z,12.53
2023-04-02T12:44:22.023Z,12.26
2023-04-02T12:46:51.522Z,12.43
2023-04-02T12:49:22.856Z,12.49
2023-04-02T12:51:52.280Z,12.45
2023-04-02T12:54:21.345Z,12.46
2023-04-02T12:56:50.793Z,12.41
2023-04-02T12:59:29.162Z,12.32
2023-04-02T13:02:02.768Z,12.19
2023-04-02T13:04:31.649Z,12.15
2023-04-02T13:07:00.760Z,12.10
2023-04-02T13:09:29.328Z,12.13
2023-04-02T13:11:58.115Z,12.00
2023-04-02T13:14:27.012Z,11.98
2023-04-02T13:16:56.420Z,11.86
2023-04-02T13:19:28.331Z,11.96
2023-04-02T13:21:58.506Z,12.00
2023-04-02T13:24:28.418Z,12.04
2023-04-02T13:26:58.240Z,11.95
2023-04-02T13:29:26.709Z,11.92
2023-04-02T13:31:56.773Z,11.61
2023-04-02T13:34:25.554Z,11.45
2023-04-02T13:36:54.125Z,11.40
2023-04-02T13:39:22.581Z,11.27
2023-04-02T13:42:02.109Z,11.02
2023-04-02T13:44:32.130Z,10.36
2023-04-02T13:47:01.017Z,10.13
2023-04-02T13:49:29.600Z,9.94
2023-04-02T13:52:00.158Z,9.83
2023-04-02T13:54:29.749Z,9.84
2023-04-02T13:56:58.178Z,9.70
2023-04-02T13:59:27.323Z,9.68
2023-04-02T14:01:58.244Z,9.73
2023-04-02T14:04:29.393Z,9.69
2023-04-02T14:07:16.009Z,9.67
2023-04-02T14:10:01.325Z,9.64
2023-04-02T14:12:44.729Z,9.59
2023-04-02T14:15:36.298Z,9.47
2023-04-02T14:18:05.073Z,9.44
2023-04-02T14:20:51.449Z,9.52
2023-04-02T14:23:28.908Z,9.63
2023-04-02T14:26:03.521Z,9.55
2023-04-02T14:28:57.662Z,9.55
2023-04-02T14:31:27.987Z,9.53
2023-04-02T14:34:02.978Z,9.49
2023-04-02T14:36:31.549Z,9.41
2023-04-02T14:39:00.340Z,9.37
2023-04-02T14:41:44.493Z,9.38
2023-04-02T14:44:13.123Z,9.41
2023-04-02T14:46:42.043Z,9.41
2023-04-02T14:49:13.949Z,9.52
2023-04-02T14:51:50.028Z,9.51
2023-04-02T14:54:35.914Z,9.51
2023-04-02T14:57:12.965Z,9.51
2023-04-02T14:59:44.606Z,9.48
2023-04-02T15:02:33.677Z,9.45
2023-04-02T15:05:04.611Z,9.29
2023-04-02T15:07:41.908Z,9.34
2023-04-02T15:10:28.719Z,9.32
2023-04-02T15:12:57.986Z,9.35
2023-04-02T15:15:40.599Z,9.40
2023-04-02T15:18:11.860Z,9.41
2023-04-02T15:20:46.577Z,9.39
2023-04-02T15:23:17.839Z,9.32
2023-04-02T15:25:51.210Z,9.29
2023-04-02T15:28:35.992Z,9.18
2023-04-02T15:31:07.521Z,9.06
2023-04-02T15:33:36.139Z,9.02
2023-04-02T15:36:04.647Z,8.92
2023-04-02T15:38:38.596Z,8.76
2023-04-02T15:41:09.979Z,8.62
2023-04-02T15:43:41.380Z,8.53
2023-04-02T15:46:26.148Z,8.46
2023-04-02T15:49:29.993Z,8.36
2023-04-02T15:52:16.408Z,8.29
2023-04-02T15:55:04.634Z,8.26
2023-04-02T15:57:36.242Z,8.20
2023-04-02T16:00:14.398Z,8.14
2023-04-02T16:02:48.748Z,8.09
2023-04-02T16:05:37.463Z,8.06
2023-04-02T16:08:21.421Z,7.98
2023-04-02T16:10:49.906Z,7.98
2023-04-02T16:13:19.919Z,7.96
2023-04-02T16:15:52.094Z,7.94
2023-04-02T16:18:40.643Z,7.92
2023-04-02T16:21:11.547Z,7.92
2023-04-02T16:23:40.258Z,7.91
2023-04-02T16:26:34.954Z,7.92
2023-04-02T16:29:22.387Z,7.90
2023-04-02T16:31:54.067Z,7.89
2023-04-02T16:34:22.419Z,7.90
2023-04-02T16:36:57.033Z,7.88
2023-04-02T16:39:39.956Z,7.86
2023-04-02T16:42:17.352Z,7.83
2023-04-02T16:44:51.877Z,7.81
2023-04-02T16:47:46.605Z,7.79
2023-04-02T16:50:24.680Z,7.77
2023-04-02T16:52:59.297Z,7.74
2023-04-02T16:55:40.473Z,7.69
2023-04-02T16:58:27.692Z,7.66
2023-04-02T17:01:12.072Z,7.59
2023-04-02T17:03:47.139Z,7.49
2023-04-02T17:06:15.784Z,7.43
2023-04-02T17:08:47.867Z,7.35
2023-04-02T17:11:32.283Z,7.30
2023-04-02T17:14:12.946Z,7.27
2023-04-02T17:16:41.543Z,7.27
2023-04-02T17:19:11.774Z,7.26
2023-04-02T17:21:41.772Z,7.24
2023-04-02T17:24:22.236Z,7.24
2023-04-02T17:26:53.275Z,7.23
2023-04-02T17:29:24.351Z,7.23
2023-04-02T17:31:54.274Z,7.21
2023-04-02T17:34:24.352Z,7.20
2023-04-02T17:37:00.112Z,7.19
2023-04-02T17:39:35.903Z,7.16
2023-04-02T17:42:23.175Z,7.17
2023-04-02T17:45:11.832Z,7.17
2023-04-02T17:47:46.540Z,7.19
2023-04-02T17:50:18.025Z,7.18
2023-04-02T17:52:53.461Z,7.17
2023-04-02T17:55:29.917Z,7.12
2023-04-02T17:58:01.879Z,7.08
2023-04-02T18:00:33.028Z,7.06
2023-04-02T18:03:19.008Z,7.05
2023-04-02T18:05:55.156Z,7.06
2023-04-02T18:08:26.490Z,7.06
2023-04-02T18:11:01.963Z,7.06
2023-04-02T18:13:34.349Z,7.06
2023-04-02T18:16:02.620Z,7.04
2023-04-02T18:18:31.308Z,7.03
2023-04-02T18:21:11.843Z,7.02
2023-04-02T18:23:49.346Z,7.00
2023-04-02T18:26:32.893Z,6.96
2023-04-02T18:29:23.599Z,6.90
2023-04-02T18:32:04.674Z,6.83
2023-04-02T18:34:33.041Z,6.78
2023-04-02T18:37:07.572Z,6.73
2023-04-02T18:39:38.816Z,6.68
2023-04-02T18:42:09.231Z,6.66
2023-04-02T18:44:53.393Z,6.67
2023-04-02T18:47:40.023Z,6.68
2023-04-02T18:50:11.845Z,6.73
2023-04-02T18:52:41.450Z,6.75
2023-04-02T18:55:25.308Z,6.76
2023-04-02T18:57:57.713Z,6.75
2023-04-02T19:00:30.450Z,6.76
2023-04-02T19:03:02.036Z,6.76
2023-04-02T19:05:41.743Z,6.77
2023-04-02T19:08:22.722Z,6.76
2023-04-02T19:10:53.565Z,6.74
2023-04-02T19:13:22.141Z,6.71
2023-04-02T19:16:09.233Z,6.69
2023-04-02T19:18:57.471Z,6.66
2023-04-02T19:21:44.727Z,6.62
2023-04-02T19:24:40.236Z,6.61
2023-04-02T19:27:11.723Z,6.61
2023-04-02T19:29:49.034Z,6.62
2023-04-02T19:32:35.768Z,6.63
2023-04-02T19:35:06.866Z,6.65
2023-04-02T19:37:35.097Z,6.67
2023-04-02T19:40:22.562Z,6.68
2023-04-02T19:42:52.795Z,6.71
2023-04-02T19:45:30.893Z,6.72
2023-04-02T19:48:01.200Z,6.73
2023-04-02T19:50:29.686Z,6.74
2023-04-02T19:52:58.148Z,6.75
2023-04-02T19:55:27.099Z,6.77
2023-04-02T19:58:04.466Z,6.78
2023-04-02T20:00:44.184Z,6.79
2023-04-02T20:03:12.540Z,6.79
2023-04-02T20:05:41.337Z,6.76
2023-04-02T20:08:10.603Z,6.75
2023-04-02T20:10:39.150Z,6.73
2023-04-02T20:13:07.798Z,6.73
2023-04-02T20:15:37.052Z,6.73
2023-04-02T20:18:06.013Z,6.74
2023-04-02T20:20:35.159Z,6.76
2023-04-02T20:23:03.721Z,6.75
2023-04-02T20:25:32.262Z,6.75
2023-04-02T20:28:03.300Z,6.74
2023-04-02T20:30:32.854Z,6.73
2023-04-02T20:33:01.717Z,6.72
2023-04-02T20:35:34.846Z,6.72
2023-04-02T20:38:06.853Z,6.69
2023-04-02T20:40:36.125Z,6.66
2023-04-02T20:43:04.836Z,6.63
2023-04-02T20:45:33.631Z,6.62
2023-04-02T20:48:02.558Z,6.60
2023-04-02T20:50:31.377Z,6.60
2023-04-02T20:53:01.142Z,6.60
2023-04-02T20:55:29.796Z,6.61
2023-04-02T20:57:58.397Z,6.60
2023-04-02T21:00:27.753Z,6.61
2023-04-02T21:02:56.698Z,6.60
2023-04-02T21:05:25.364Z,6.60
2023-04-02T21:07:53.946Z,6.60
2023-04-02T21:10:22.562Z,6.60
2023-04-02T21:12:51.413Z,6.61
2023-04-02T21:15:19.896Z,6.59
2023-04-02T21:17:48.523Z,6.58
2023-04-02T21:20:17.268Z,6.57
2023-04-02T21:22:45.722Z,6.52
2023-04-02T21:25:15.021Z,6.50
2023-04-02T21:27:43.554Z,6.48
2023-04-02T21:30:12.571Z,6.46
2023-04-02T21:32:41.289Z,6.43
2023-04-02T21:35:10.125Z,6.42
2023-04-02T21:37:38.982Z,6.42
2023-04-02T21:40:08.390Z,6.42
2023-04-02T21:42:37.083Z,6.42
2023-04-02T21:45:06.301Z,6.40
2023-04-02T21:47:35.069Z,6.36
2023-04-02T21:50:04.265Z,6.30
2023-04-02T21:52:32.677Z,6.28
2023-04-02T21:55:01.180Z,6.27
2023-04-02T21:57:29.828Z,6.27
2023-04-02T21:59:58.501Z,6.26
2023-04-02T22:02:26.994Z,6.27
2023-04-02T22:04:56.271Z,6.26
2023-04-02T22:07:24.761Z,6.26
2023-04-02T22:09:54.043Z,6.28
2023-04-02T22:12:23.555Z,6.29
2023-04-02T22:14:52.545Z,6.29
2023-04-02T22:17:21.890Z,6.29
2023-04-02T22:19:50.631Z,6.29
2023-04-02T22:22:20.041Z,6.28
2023-04-02T22:24:49.034Z,6.27
2023-04-02T22:27:18.344Z,6.27
2023-04-02T22:29:47.443Z,6.27
2023-04-02T22:32:16.411Z,6.27
2023-04-02T22:34:46.235Z,6.27
2023-04-02T22:37:14.921Z,6.27
2023-04-02T22:39:43.896Z,6.27
2023-04-02T22:42:13.071Z,6.27
2023-04-02T22:44:42.025Z,6.28
2023-04-02T22:47:10.983Z,6.28
2023-04-02T22:49:39.879Z,6.29
2023-04-02T22:52:10.057Z,6.28
2023-04-02T22:54:39.634Z,6.27
2023-04-02T22:57:08.813Z,6.25
2023-04-02T22:59:39.058Z,6.23
2023-04-02T23:02:09.038Z,6.23
2023-04-02T23:04:38.896Z,6.23
2023-04-02T23:07:09.626Z,6.23
2023-04-02T23:09:39.606Z,6.23
2023-04-02T23:12:09.439Z,6.22
2023-04-02T23:14:38.651Z,6.20
2023-04-02T23:17:08.617Z,6.20
2023-04-02T23:19:37.432Z,6.19
2023-04-02T23:22:07.538Z,6.20
2023-04-02T23:24:37.427Z,6.20
2023-04-02T23:27:06.978Z,6.19
2023-04-02T23:29:36.685Z,6.17
2023-04-02T23:32:06.383Z,6.18
2023-04-02T23:34:36.001Z,6.18
2023-04-02T23:37:05.703Z,6.19
2023-04-02T23:39:34.905Z,6.19
2023-04-02T23:42:04.822Z,6.18
2023-04-02T23:44:34.203Z,6.18
2023-04-02T23:47:04.045Z,6.14
2023-04-02T23:49:34.247Z,6.08
2023-04-02T23:52:04.633Z,6.05
2023-04-02T23:54:35.619Z,6.03
2023-04-02T23:57:07.027Z,6.04
2023-04-02T23:59:38.077Z,6.02
